sensor_id;sensor_type;location;lat;lon;timestamp;P1;durP1;ratioP1;P2;durP2;ratioP2
10050;SDS011;5065;46.942;7.432;2022-10-31T00:00:16;17.40;;;7.30;;
10050;SDS011;5065;46.942;7.432;2022-10-31T00:02:44;16.50;;;7.50;;
10050;SDS011;5065;46.942;7.432;2022-10-31T00:05:11;11.90;;;7.65;;
10050;SDS011;5065;46.942;7.432;2022-10-31T00:07:39;20.73;;;8.20;;
10050;SDS011;5065;46.942;7.432;2022-10-31T00:10:07;14.57;;;7.65;;
10050;SDS011;5065;46.942;7.432;2022-10-31T00:12:35;15.02;;;7.25;;
10050;SDS011;5065;46.942;7.432;2022-10-31T00:15:02;18.33;;;7.03;;
10050;SDS011;5065;46.942;7.432;2022-10-31T00:17:29;19.75;;;7.00;;
10050;SDS011;5065;46.942;7.432;2022-10-31T00:19:58;16.58;;;7.43;;
10050;SDS011;5065;46.942;7.432;2022-10-31T00:22:25;15.00;;;7.45;;
10050;SDS011;5065;46.942;7.432;2022-10-31T00:24:52;17.67;;;7.60;;
10050;SDS011;5065;46.942;7.432;2022-10-31T00:27:19;16.10;;;7.50;;
10050;SDS011;5065;46.942;7.432;2022-10-31T00:29:46;14.23;;;6.65;;
10050;SDS011;5065;46.942;7.432;2022-10-31T00:32:13;14.95;;;7.50;;
10050;SDS011;5065;46.942;7.432;2022-10-31T00:34:41;13.73;;;6.78;;
10050;SDS011;5065;46.942;7.432;2022-10-31T00:37:09;14.70;;;7.53;;
10050;SDS011;5065;46.942;7.432;2022-10-31T00:39:36;14.50;;;7.43;;
10050;SDS011;5065;46.942;7.432;2022-10-31T00:42:03;15.20;;;6.65;;
10050;SDS011;5065;46.942;7.432;2022-10-31T00:44:30;14.32;;;6.35;;
10050;SDS011;5065;46.942;7.432;2022-10-31T00:46:58;18.00;;;7.03;;
10050;SDS011;5065;46.942;7.432;2022-10-31T00:49:25;17.33;;;6.73;;
10050;SDS011;5065;46.942;7.432;2022-10-31T00:51:52;11.52;;;6.72;;
10050;SDS011;5065;46.942;7.432;2022-10-31T00:54:20;14.98;;;6.43;;
10050;SDS011;5065;46.942;7.432;2022-10-31T00:56:47;13.68;;;6.95;;
10050;SDS011;5065;46.942;7.432;2022-10-31T00:59:15;12.13;;;6.00;;
10050;SDS011;5065;46.942;7.432;2022-10-31T01:01:42;13.88;;;7.13;;
10050;SDS011;5065;46.942;7.432;2022-10-31T01:04:09;11.15;;;6.32;;
10050;SDS011;5065;46.942;7.432;2022-10-31T01:06:36;13.10;;;6.35;;
10050;SDS011;5065;46.942;7.432;2022-10-31T01:09:03;14.20;;;6.28;;
10050;SDS011;5065;46.942;7.432;2022-10-31T01:11:32;14.73;;;6.15;;
10050;SDS011;5065;46.942;7.432;2022-10-31T01:14:00;13.40;;;6.30;;
10050;SDS011;5065;46.942;7.432;2022-10-31T01:16:27;13.53;;;6.07;;
10050;SDS011;5065;46.942;7.432;2022-10-31T01:18:55;15.38;;;6.40;;
10050;SDS011;5065;46.942;7.432;2022-10-31T01:21:23;16.07;;;6.87;;
10050;SDS011;5065;46.942;7.432;2022-10-31T01:23:52;9.63;;;6.10;;
10050;SDS011;5065;46.942;7.432;2022-10-31T01:26:21;11.50;;;5.93;;
10050;SDS011;5065;46.942;7.432;2022-10-31T01:28:53;13.00;;;6.27;;
10050;SDS011;5065;46.942;7.432;2022-10-31T01:31:23;13.63;;;6.13;;
10050;SDS011;5065;46.942;7.432;2022-10-31T01:33:52;11.77;;;5.80;;
10050;SDS011;5065;46.942;7.432;2022-10-31T01:36:20;11.38;;;5.60;;
10050;SDS011;5065;46.942;7.432;2022-10-31T01:38:48;9.65;;;5.53;;
10050;SDS011;5065;46.942;7.432;2022-10-31T01:41:17;10.30;;;5.68;;
10050;SDS011;5065;46.942;7.432;2022-10-31T01:43:47;13.18;;;5.85;;
10050;SDS011;5065;46.942;7.432;2022-10-31T01:46:19;13.05;;;6.03;;
10050;SDS011;5065;46.942;7.432;2022-10-31T01:48:49;10.65;;;6.00;;
10050;SDS011;5065;46.942;7.432;2022-10-31T01:51:17;10.07;;;5.70;;
10050;SDS011;5065;46.942;7.432;2022-10-31T01:53:49;11.38;;;5.90;;
10050;SDS011;5065;46.942;7.432;2022-10-31T01:56:20;10.57;;;5.43;;
10050;SDS011;5065;46.942;7.432;2022-10-31T01:58:48;14.93;;;5.63;;
10050;SDS011;5065;46.942;7.432;2022-10-31T02:01:16;13.48;;;5.30;;
10050;SDS011;5065;46.942;7.432;2022-10-31T02:03:45;12.90;;;5.82;;
10050;SDS011;5065;46.942;7.432;2022-10-31T02:06:16;17.70;;;5.60;;
10050;SDS011;5065;46.942;7.432;2022-10-31T02:08:54;12.20;;;5.50;;
10050;SDS011;5065;46.942;7.432;2022-10-31T02:11:23;14.93;;;5.90;;
10050;SDS011;5065;46.942;7.432;2022-10-31T02:13:51;13.93;;;5.43;;
10050;SDS011;5065;46.942;7.432;2022-10-31T02:16:18;10.77;;;4.80;;
10050;SDS011;5065;46.942;7.432;2022-10-31T02:18:47;14.77;;;4.30;;
10050;SDS011;5065;46.942;7.432;2022-10-31T02:21:15;16.60;;;4.97;;
10050;SDS011;5065;46.942;7.432;2022-10-31T02:26:57;11.30;;;4.67;;
10050;SDS011;5065;46.942;7.432;2022-10-31T02:32:24;10.63;;;4.57;;
10050;SDS011;5065;46.942;7.432;2022-10-31T02:34:56;11.50;;;4.53;;
10050;SDS011;5065;46.942;7.432;2022-10-31T02:37:28;7.53;;;4.07;;
10050;SDS011;5065;46.942;7.432;2022-10-31T02:40:03;7.93;;;3.93;;
10050;SDS011;5065;46.942;7.432;2022-10-31T02:42:38;9.07;;;3.90;;
10050;SDS011;5065;46.942;7.432;2022-10-31T02:45:13;8.10;;;4.43;;
10050;SDS011;5065;46.942;7.432;2022-10-31T02:47:45;11.00;;;4.70;;
10050;SDS011;5065;46.942;7.432;2022-10-31T02:50:16;9.80;;;3.93;;
10050;SDS011;5065;46.942;7.432;2022-10-31T02:52:50;11.50;;;4.40;;
10050;SDS011;5065;46.942;7.432;2022-10-31T02:58:23;7.80;;;3.87;;
10050;SDS011;5065;46.942;7.432;2022-10-31T03:04:00;7.33;;;4.17;;
10050;SDS011;5065;46.942;7.432;2022-10-31T03:06:48;11.67;;;5.13;;
10050;SDS011;5065;46.942;7.432;2022-10-31T03:09:21;7.73;;;4.40;;
10050;SDS011;5065;46.942;7.432;2022-10-31T03:11:52;6.07;;;4.07;;
10050;SDS011;5065;46.942;7.432;2022-10-31T03:14:24;12.43;;;4.53;;
10050;SDS011;5065;46.942;7.432;2022-10-31T03:16:58;9.40;;;4.70;;
10050;SDS011;5065;46.942;7.432;2022-10-31T03:19:29;10.50;;;4.63;;
10050;SDS011;5065;46.942;7.432;2022-10-31T03:22:01;16.30;;;4.43;;
10050;SDS011;5065;46.942;7.432;2022-10-31T03:24:35;10.73;;;4.27;;
10050;SDS011;5065;46.942;7.432;2022-10-31T03:27:06;8.93;;;4.60;;
10050;SDS011;5065;46.942;7.432;2022-10-31T03:29:36;9.40;;;4.47;;
10050;SDS011;5065;46.942;7.432;2022-10-31T03:32:07;10.07;;;4.23;;
10050;SDS011;5065;46.942;7.432;2022-10-31T03:34:38;9.27;;;3.93;;
10050;SDS011;5065;46.942;7.432;2022-10-31T03:37:18;7.53;;;4.20;;
10050;SDS011;5065;46.942;7.432;2022-10-31T03:39:49;6.93;;;3.97;;
10050;SDS011;5065;46.942;7.432;2022-10-31T03:42:17;8.37;;;3.97;;
10050;SDS011;5065;46.942;7.432;2022-10-31T03:44:49;14.43;;;4.30;;
10050;SDS011;5065;46.942;7.432;2022-10-31T03:47:21;9.63;;;4.07;;
10050;SDS011;5065;46.942;7.432;2022-10-31T03:49:50;14.20;;;4.47;;
10050;SDS011;5065;46.942;7.432;2022-10-31T03:52:19;7.00;;;4.33;;
10050;SDS011;5065;46.942;7.432;2022-10-31T03:54:54;9.80;;;4.60;;
10050;SDS011;5065;46.942;7.432;2022-10-31T03:57:25;11.20;;;3.67;;
10050;SDS011;5065;46.942;7.432;2022-10-31T03:59:57;11.50;;;4.07;;
10050;SDS011;5065;46.942;7.432;2022-10-31T04:02:30;7.43;;;4.07;;
10050;SDS011;5065;46.942;7.432;2022-10-31T04:05:00;10.27;;;4.47;;
10050;SDS011;5065;46.942;7.432;2022-10-31T04:07:30;8.70;;;4.10;;
10050;SDS011;5065;46.942;7.432;2022-10-31T04:10:01;10.33;;;4.10;;
10050;SDS011;5065;46.942;7.432;2022-10-31T04:12:31;8.80;;;4.30;;
10050;SDS011;5065;46.942;7.432;2022-10-31T04:15:00;8.80;;;5.00;;
10050;SDS011;5065;46.942;7.432;2022-10-31T04:17:29;16.50;;;4.87;;
10050;SDS011;5065;46.942;7.432;2022-10-31T04:20:02;10.00;;;4.33;;
10050;SDS011;5065;46.942;7.432;2022-10-31T04:22:29;9.60;;;4.20;;
10050;SDS011;5065;46.942;7.432;2022-10-31T04:24:56;10.93;;;4.90;;
10050;SDS011;5065;46.942;7.432;2022-10-31T04:27:23;9.63;;;4.27;;
10050;SDS011;5065;46.942;7.432;2022-10-31T04:29:51;8.97;;;4.20;;
10050;SDS011;5065;46.942;7.432;2022-10-31T04:32:18;9.80;;;4.43;;
10050;SDS011;5065;46.942;7.432;2022-10-31T04:34:45;9.90;;;4.40;;
10050;SDS011;5065;46.942;7.432;2022-10-31T04:37:14;10.77;;;4.47;;
10050;SDS011;5065;46.942;7.432;2022-10-31T04:39:41;7.93;;;3.80;;
10050;SDS011;5065;46.942;7.432;2022-10-31T04:42:08;9.90;;;4.63;;
10050;SDS011;5065;46.942;7.432;2022-10-31T04:44:35;8.60;;;4.20;;
10050;SDS011;5065;46.942;7.432;2022-10-31T04:47:02;10.33;;;4.00;;
10050;SDS011;5065;46.942;7.432;2022-10-31T04:49:30;10.00;;;4.40;;
10050;SDS011;5065;46.942;7.432;2022-10-31T04:51:57;10.20;;;4.10;;
10050;SDS011;5065;46.942;7.432;2022-10-31T04:54:26;8.80;;;4.33;;
10050;SDS011;5065;46.942;7.432;2022-10-31T04:56:53;9.43;;;4.50;;
10050;SDS011;5065;46.942;7.432;2022-10-31T04:59:20;8.20;;;4.53;;
10050;SDS011;5065;46.942;7.432;2022-10-31T05:01:47;9.80;;;3.80;;
10050;SDS011;5065;46.942;7.432;2022-10-31T05:04:14;5.83;;;4.00;;
10050;SDS011;5065;46.942;7.432;2022-10-31T05:06:41;11.53;;;3.97;;
10050;SDS011;5065;46.942;7.432;2022-10-31T05:09:08;11.00;;;4.57;;
10050;SDS011;5065;46.942;7.432;2022-10-31T05:11:37;14.93;;;4.50;;
10050;SDS011;5065;46.942;7.432;2022-10-31T05:14:04;12.43;;;4.17;;
10050;SDS011;5065;46.942;7.432;2022-10-31T05:16:31;11.50;;;4.30;;
10050;SDS011;5065;46.942;7.432;2022-10-31T05:18:58;9.77;;;4.50;;
10050;SDS011;5065;46.942;7.432;2022-10-31T05:21:25;7.90;;;3.67;;
10050;SDS011;5065;46.942;7.432;2022-10-31T05:23:53;9.40;;;4.27;;
10050;SDS011;5065;46.942;7.432;2022-10-31T05:26:20;14.37;;;4.10;;
10050;SDS011;5065;46.942;7.432;2022-10-31T05:28:48;15.00;;;4.30;;
10050;SDS011;5065;46.942;7.432;2022-10-31T05:31:15;13.27;;;4.20;;
10050;SDS011;5065;46.942;7.432;2022-10-31T05:33:42;9.40;;;4.40;;
10050;SDS011;5065;46.942;7.432;2022-10-31T05:36:10;12.40;;;4.17;;
10050;SDS011;5065;46.942;7.432;2022-10-31T05:38:37;11.93;;;4.20;;
10050;SDS011;5065;46.942;7.432;2022-10-31T05:41:04;10.40;;;3.83;;
10050;SDS011;5065;46.942;7.432;2022-10-31T05:43:31;10.07;;;4.17;;
10050;SDS011;5065;46.942;7.432;2022-10-31T05:45:59;13.37;;;4.73;;
10050;SDS011;5065;46.942;7.432;2022-10-31T05:48:27;13.10;;;4.40;;
10050;SDS011;5065;46.942;7.432;2022-10-31T05:50:54;6.60;;;4.00;;
10050;SDS011;5065;46.942;7.432;2022-10-31T05:53:21;8.00;;;4.67;;
10050;SDS011;5065;46.942;7.432;2022-10-31T05:55:48;8.20;;;4.17;;
10050;SDS011;5065;46.942;7.432;2022-10-31T05:58:15;11.40;;;4.73;;
10050;SDS011;5065;46.942;7.432;2022-10-31T06:00:42;7.87;;;3.90;;
10050;SDS011;5065;46.942;7.432;2022-10-31T06:03:11;9.73;;;4.63;;
10050;SDS011;5065;46.942;7.432;2022-10-31T06:05:39;10.73;;;4.40;;
10050;SDS011;5065;46.942;7.432;2022-10-31T06:08:07;8.03;;;3.70;;
10050;SDS011;5065;46.942;7.432;2022-10-31T06:10:35;7.60;;;3.87;;
10050;SDS011;5065;46.942;7.432;2022-10-31T06:13:02;9.50;;;3.97;;
10050;SDS011;5065;46.942;7.432;2022-10-31T06:15:31;8.17;;;3.87;;
10050;SDS011;5065;46.942;7.432;2022-10-31T06:18:01;14.03;;;3.87;;
10050;SDS011;5065;46.942;7.432;2022-10-31T06:20:30;5.33;;;3.57;;
10050;SDS011;5065;46.942;7.432;2022-10-31T06:22:58;8.17;;;4.43;;
10050;SDS011;5065;46.942;7.432;2022-10-31T06:25:25;12.80;;;3.83;;
10050;SDS011;5065;46.942;7.432;2022-10-31T06:27:52;11.30;;;4.43;;
10050;SDS011;5065;46.942;7.432;2022-10-31T06:30:20;9.63;;;4.10;;
10050;SDS011;5065;46.942;7.432;2022-10-31T06:32:47;8.83;;;4.20;;
10050;SDS011;5065;46.942;7.432;2022-10-31T06:35:14;10.30;;;4.63;;
10050;SDS011;5065;46.942;7.432;2022-10-31T06:37:50;9.00;;;4.70;;
10050;SDS011;5065;46.942;7.432;2022-10-31T06:40:17;8.73;;;4.30;;
10050;SDS011;5065;46.942;7.432;2022-10-31T06:42:44;6.70;;;4.40;;
10050;SDS011;5065;46.942;7.432;2022-10-31T06:45:11;11.50;;;5.17;;
10050;SDS011;5065;46.942;7.432;2022-10-31T06:47:38;9.63;;;4.83;;
10050;SDS011;5065;46.942;7.432;2022-10-31T06:50:06;12.90;;;4.33;;
10050;SDS011;5065;46.942;7.432;2022-10-31T06:52:33;8.57;;;4.50;;
10050;SDS011;5065;46.942;7.432;2022-10-31T06:55:02;6.40;;;3.97;;
10050;SDS011;5065;46.942;7.432;2022-10-31T06:57:30;5.77;;;3.90;;
10050;SDS011;5065;46.942;7.432;2022-10-31T06:59:57;14.37;;;4.47;;
10050;SDS011;5065;46.942;7.432;2022-10-31T07:02:24;6.33;;;3.97;;
10050;SDS011;5065;46.942;7.432;2022-10-31T07:04:51;13.60;;;3.80;;
10050;SDS011;5065;46.942;7.432;2022-10-31T07:07:18;6.57;;;3.53;;
10050;SDS011;5065;46.942;7.432;2022-10-31T07:09:46;9.93;;;4.07;;
10050;SDS011;5065;46.942;7.432;2022-10-31T07:12:15;8.90;;;3.70;;
10050;SDS011;5065;46.942;7.432;2022-10-31T07:14:42;8.30;;;4.53;;
10050;SDS011;5065;46.942;7.432;2022-10-31T07:17:09;8.70;;;3.93;;
10050;SDS011;5065;46.942;7.432;2022-10-31T07:19:36;14.23;;;4.77;;
10050;SDS011;5065;46.942;7.432;2022-10-31T07:22:03;7.10;;;3.80;;
10050;SDS011;5065;46.942;7.432;2022-10-31T07:24:30;10.97;;;3.77;;
10050;SDS011;5065;46.942;7.432;2022-10-31T07:26:57;8.90;;;3.80;;
10050;SDS011;5065;46.942;7.432;2022-10-31T07:29:26;9.30;;;4.03;;
10050;SDS011;5065;46.942;7.432;2022-10-31T07:31:53;9.30;;;4.13;;
10050;SDS011;5065;46.942;7.432;2022-10-31T07:34:20;9.37;;;4.33;;
10050;SDS011;5065;46.942;7.432;2022-10-31T07:36:50;9.37;;;4.33;;
10050;SDS011;5065;46.942;7.432;2022-10-31T07:39:17;9.70;;;4.93;;
10050;SDS011;5065;46.942;7.432;2022-10-31T07:41:44;7.63;;;5.13;;
10050;SDS011;5065;46.942;7.432;2022-10-31T07:44:11;10.23;;;4.37;;
10050;SDS011;5065;46.942;7.432;2022-10-31T07:46:39;8.70;;;3.80;;
10050;SDS011;5065;46.942;7.432;2022-10-31T07:49:06;10.30;;;5.87;;
10050;SDS011;5065;46.942;7.432;2022-10-31T07:51:33;15.50;;;4.63;;
10050;SDS011;5065;46.942;7.432;2022-10-31T07:54:01;9.90;;;4.03;;
10050;SDS011;5065;46.942;7.432;2022-10-31T07:56:28;11.07;;;5.50;;
10050;SDS011;5065;46.942;7.432;2022-10-31T07:58:55;12.47;;;4.57;;
10050;SDS011;5065;46.942;7.432;2022-10-31T08:01:22;10.03;;;4.43;;
10050;SDS011;5065;46.942;7.432;2022-10-31T08:03:51;7.50;;;4.63;;
10050;SDS011;5065;46.942;7.432;2022-10-31T08:06:18;11.90;;;4.40;;
10050;SDS011;5065;46.942;7.432;2022-10-31T08:08:45;13.40;;;4.50;;
10050;SDS011;5065;46.942;7.432;2022-10-31T08:11:12;6.93;;;4.00;;
10050;SDS011;5065;46.942;7.432;2022-10-31T08:13:39;11.47;;;4.67;;
10050;SDS011;5065;46.942;7.432;2022-10-31T08:16:08;14.37;;;4.87;;
10050;SDS011;5065;46.942;7.432;2022-10-31T08:18:35;10.43;;;5.00;;
10050;SDS011;5065;46.942;7.432;2022-10-31T08:21:04;13.67;;;5.30;;
10050;SDS011;5065;46.942;7.432;2022-10-31T08:23:31;14.30;;;5.17;;
10050;SDS011;5065;46.942;7.432;2022-10-31T08:25:58;10.70;;;5.60;;
10050;SDS011;5065;46.942;7.432;2022-10-31T08:28:26;11.70;;;5.40;;
10050;SDS011;5065;46.942;7.432;2022-10-31T08:30:53;12.17;;;4.97;;
10050;SDS011;5065;46.942;7.432;2022-10-31T08:33:20;6.80;;;4.80;;
10050;SDS011;5065;46.942;7.432;2022-10-31T08:35:47;16.53;;;5.10;;
10050;SDS011;5065;46.942;7.432;2022-10-31T08:38:16;11.23;;;5.63;;
10050;SDS011;5065;46.942;7.432;2022-10-31T08:40:43;17.67;;;4.20;;
10050;SDS011;5065;46.942;7.432;2022-10-31T08:43:15;6.10;;;3.80;;
10050;SDS011;5065;46.942;7.432;2022-10-31T08:45:44;11.53;;;4.70;;
10050;SDS011;5065;46.942;7.432;2022-10-31T08:48:14;7.97;;;4.33;;
10050;SDS011;5065;46.942;7.432;2022-10-31T08:50:43;8.97;;;3.80;;
10050;SDS011;5065;46.942;7.432;2022-10-31T08:53:11;6.47;;;4.10;;
10050;SDS011;5065;46.942;7.432;2022-10-31T08:55:41;13.87;;;3.50;;
10050;SDS011;5065;46.942;7.432;2022-10-31T08:58:11;7.53;;;3.57;;
10050;SDS011;5065;46.942;7.432;2022-10-31T09:00:39;12.23;;;3.33;;
10050;SDS011;5065;46.942;7.432;2022-10-31T09:03:08;11.40;;;4.27;;
10050;SDS011;5065;46.942;7.432;2022-10-31T09:05:38;10.73;;;3.43;;
10050;SDS011;5065;46.942;7.432;2022-10-31T09:08:05;16.43;;;4.13;;
10050;SDS011;5065;46.942;7.432;2022-10-31T09:10:35;12.30;;;4.63;;
10050;SDS011;5065;46.942;7.432;2022-10-31T09:13:04;9.60;;;4.40;;
10050;SDS011;5065;46.942;7.432;2022-10-31T09:15:33;10.20;;;3.83;;
10050;SDS011;5065;46.942;7.432;2022-10-31T09:18:01;8.50;;;3.63;;
10050;SDS011;5065;46.942;7.432;2022-10-31T09:20:29;13.83;;;4.03;;
10050;SDS011;5065;46.942;7.432;2022-10-31T09:22:57;16.50;;;4.03;;
10050;SDS011;5065;46.942;7.432;2022-10-31T09:25:26;8.53;;;4.70;;
10050;SDS011;5065;46.942;7.432;2022-10-31T09:27:55;11.60;;;4.33;;
10050;SDS011;5065;46.942;7.432;2022-10-31T09:30:24;13.40;;;4.20;;
10050;SDS011;5065;46.942;7.432;2022-10-31T09:32:55;20.13;;;4.27;;
10050;SDS011;5065;46.942;7.432;2022-10-31T09:35:23;7.67;;;3.73;;
10050;SDS011;5065;46.942;7.432;2022-10-31T09:37:53;7.00;;;3.47;;
10050;SDS011;5065;46.942;7.432;2022-10-31T09:40:21;8.50;;;3.70;;
10050;SDS011;5065;46.942;7.432;2022-10-31T09:42:51;8.67;;;4.03;;
10050;SDS011;5065;46.942;7.432;2022-10-31T09:45:27;10.80;;;3.37;;
10050;SDS011;5065;46.942;7.432;2022-10-31T09:48:08;12.83;;;4.53;;
10050;SDS011;5065;46.942;7.432;2022-10-31T09:50:44;14.27;;;3.80;;
10050;SDS011;5065;46.942;7.432;2022-10-31T09:53:17;12.90;;;3.77;;
10050;SDS011;5065;46.942;7.432;2022-10-31T09:55:51;12.10;;;3.50;;
10050;SDS011;5065;46.942;7.432;2022-10-31T09:58:20;7.37;;;3.60;;
10050;SDS011;5065;46.942;7.432;2022-10-31T10:00:55;14.07;;;4.50;;
10050;SDS011;5065;46.942;7.432;2022-10-31T10:03:28;8.70;;;4.40;;
10050;SDS011;5065;46.942;7.432;2022-10-31T10:06:02;21.57;;;4.30;;
10050;SDS011;5065;46.942;7.432;2022-10-31T10:08:35;10.40;;;4.70;;
10050;SDS011;5065;46.942;7.432;2022-10-31T10:11:07;25.57;;;4.67;;
10050;SDS011;5065;46.942;7.432;2022-10-31T10:13:55;25.87;;;4.97;;
10050;SDS011;5065;46.942;7.432;2022-10-31T10:16:41;13.00;;;4.33;;
10050;SDS011;5065;46.942;7.432;2022-10-31T10:19:22;11.60;;;4.17;;
10050;SDS011;5065;46.942;7.432;2022-10-31T10:22:00;20.17;;;7.20;;
10050;SDS011;5065;46.942;7.432;2022-10-31T10:24:35;11.50;;;4.37;;
10050;SDS011;5065;46.942;7.432;2022-10-31T10:27:13;11.73;;;4.47;;
10050;SDS011;5065;46.942;7.432;2022-10-31T10:29:47;12.57;;;5.00;;
10050;SDS011;5065;46.942;7.432;2022-10-31T10:32:20;8.57;;;3.83;;
10050;SDS011;5065;46.942;7.432;2022-10-31T10:34:51;15.30;;;4.07;;
10050;SDS011;5065;46.942;7.432;2022-10-31T10:37:23;11.70;;;5.43;;
10050;SDS011;5065;46.942;7.432;2022-10-31T10:39:55;12.77;;;5.13;;
10050;SDS011;5065;46.942;7.432;2022-10-31T10:42:26;11.93;;;6.37;;
10050;SDS011;5065;46.942;7.432;2022-10-31T10:45:13;21.47;;;4.47;;
10050;SDS011;5065;46.942;7.432;2022-10-31T10:48:05;16.30;;;4.70;;
10050;SDS011;5065;46.942;7.432;2022-10-31T10:50:36;14.60;;;4.83;;
10050;SDS011;5065;46.942;7.432;2022-10-31T10:53:09;6.80;;;3.83;;
10050;SDS011;5065;46.942;7.432;2022-10-31T10:55:57;10.03;;;3.90;;
10050;SDS011;5065;46.942;7.432;2022-10-31T10:58:30;15.47;;;4.40;;
10050;SDS011;5065;46.942;7.432;2022-10-31T11:00:57;6.37;;;3.70;;
10050;SDS011;5065;46.942;7.432;2022-10-31T11:03:26;9.57;;;3.03;;
10050;SDS011;5065;46.942;7.432;2022-10-31T11:05:54;9.90;;;3.67;;
10050;SDS011;5065;46.942;7.432;2022-10-31T11:08:23;12.00;;;3.90;;
10050;SDS011;5065;46.942;7.432;2022-10-31T11:11:01;10.93;;;3.90;;
10050;SDS011;5065;46.942;7.432;2022-10-31T11:13:30;12.27;;;3.70;;
10050;SDS011;5065;46.942;7.432;2022-10-31T11:15:59;13.80;;;3.53;;
10050;SDS011;5065;46.942;7.432;2022-10-31T11:18:30;9.43;;;3.60;;
10050;SDS011;5065;46.942;7.432;2022-10-31T11:21:01;13.13;;;3.37;;
10050;SDS011;5065;46.942;7.432;2022-10-31T11:23:29;11.30;;;3.97;;
10050;SDS011;5065;46.942;7.432;2022-10-31T11:25:58;12.87;;;3.73;;
10050;SDS011;5065;46.942;7.432;2022-10-31T11:28:27;7.67;;;4.07;;
10050;SDS011;5065;46.942;7.432;2022-10-31T11:30:57;9.97;;;3.93;;
10050;SDS011;5065;46.942;7.432;2022-10-31T11:33:27;12.90;;;4.10;;
10050;SDS011;5065;46.942;7.432;2022-10-31T11:35:59;10.47;;;4.47;;
10050;SDS011;5065;46.942;7.432;2022-10-31T11:38:29;15.47;;;4.87;;
10050;SDS011;5065;46.942;7.432;2022-10-31T11:41:04;10.20;;;4.60;;
10050;SDS011;5065;46.942;7.432;2022-10-31T11:43:36;10.90;;;4.70;;
10050;SDS011;5065;46.942;7.432;2022-10-31T11:46:08;9.53;;;3.93;;
10050;SDS011;5065;46.942;7.432;2022-10-31T11:48:37;17.20;;;3.70;;
10050;SDS011;5065;46.942;7.432;2022-10-31T11:51:05;6.87;;;3.63;;
10050;SDS011;5065;46.942;7.432;2022-10-31T11:53:33;7.27;;;2.90;;
10050;SDS011;5065;46.942;7.432;2022-10-31T11:56:03;11.47;;;2.83;;
10050;SDS011;5065;46.942;7.432;2022-10-31T11:58:31;10.90;;;2.67;;
10050;SDS011;5065;46.942;7.432;2022-10-31T12:00:59;10.97;;;3.13;;
10050;SDS011;5065;46.942;7.432;2022-10-31T12:03:28;13.83;;;3.23;;
10050;SDS011;5065;46.942;7.432;2022-10-31T12:06:07;11.97;;;3.27;;
10050;SDS011;5065;46.942;7.432;2022-10-31T12:08:38;9.83;;;2.30;;
10050;SDS011;5065;46.942;7.432;2022-10-31T12:11:09;9.73;;;2.97;;
10050;SDS011;5065;46.942;7.432;2022-10-31T12:13:51;8.40;;;3.40;;
10050;SDS011;5065;46.942;7.432;2022-10-31T12:16:31;10.83;;;3.00;;
10050;SDS011;5065;46.942;7.432;2022-10-31T12:19:08;7.10;;;2.87;;
10050;SDS011;5065;46.942;7.432;2022-10-31T12:21:48;11.73;;;3.23;;
10050;SDS011;5065;46.942;7.432;2022-10-31T12:24:35;20.53;;;3.37;;
10050;SDS011;5065;46.942;7.432;2022-10-31T12:27:25;16.30;;;4.20;;
10050;SDS011;5065;46.942;7.432;2022-10-31T12:30:12;11.23;;;3.47;;
10050;SDS011;5065;46.942;7.432;2022-10-31T12:33:01;18.33;;;3.43;;
10050;SDS011;5065;46.942;7.432;2022-10-31T12:35:51;9.27;;;3.30;;
10050;SDS011;5065;46.942;7.432;2022-10-31T12:41:20;10.93;;;3.47;;
10050;SDS011;5065;46.942;7.432;2022-10-31T12:43:56;7.77;;;3.80;;
10050;SDS011;5065;46.942;7.432;2022-10-31T12:46:34;8.23;;;3.23;;
10050;SDS011;5065;46.942;7.432;2022-10-31T12:49:32;12.77;;;4.00;;
10050;SDS011;5065;46.942;7.432;2022-10-31T12:52:14;11.37;;;4.00;;
10050;SDS011;5065;46.942;7.432;2022-10-31T12:55:00;13.20;;;3.80;;
10050;SDS011;5065;46.942;7.432;2022-10-31T12:57:38;11.80;;;3.50;;
10050;SDS011;5065;46.942;7.432;2022-10-31T13:00:11;6.10;;;3.33;;
10050;SDS011;5065;46.942;7.432;2022-10-31T13:02:42;7.37;;;3.40;;
10050;SDS011;5065;46.942;7.432;2022-10-31T13:05:16;18.70;;;4.18;;
10050;SDS011;5065;46.942;7.432;2022-10-31T13:07:48;9.43;;;4.13;;
10050;SDS011;5065;46.942;7.432;2022-10-31T13:10:22;9.77;;;4.43;;
10050;SDS011;5065;46.942;7.432;2022-10-31T13:12:52;9.68;;;3.35;;
10050;SDS011;5065;46.942;7.432;2022-10-31T13:15:24;12.38;;;3.95;;
10050;SDS011;5065;46.942;7.432;2022-10-31T13:17:54;8.27;;;3.70;;
10050;SDS011;5065;46.942;7.432;2022-10-31T13:20:24;11.55;;;3.83;;
10050;SDS011;5065;46.942;7.432;2022-10-31T13:22:56;8.45;;;3.70;;
10050;SDS011;5065;46.942;7.432;2022-10-31T13:25:30;10.00;;;3.60;;
10050;SDS011;5065;46.942;7.432;2022-10-31T13:28:05;10.27;;;3.67;;
10050;SDS011;5065;46.942;7.432;2022-10-31T13:30:46;11.87;;;3.67;;
10050;SDS011;5065;46.942;7.432;2022-10-31T13:33:16;14.82;;;3.28;;
10050;SDS011;5065;46.942;7.432;2022-10-31T13:35:48;7.20;;;3.33;;
10050;SDS011;5065;46.942;7.432;2022-10-31T13:38:20;12.02;;;4.07;;
10050;SDS011;5065;46.942;7.432;2022-10-31T13:40:52;7.50;;;3.13;;
10050;SDS011;5065;46.942;7.432;2022-10-31T13:43:27;12.00;;;3.80;;
10050;SDS011;5065;46.942;7.432;2022-10-31T13:45:59;5.83;;;3.30;;
10050;SDS011;5065;46.942;7.432;2022-10-31T13:48:34;12.68;;;4.93;;
10050;SDS011;5065;46.942;7.432;2022-10-31T13:51:05;10.03;;;4.20;;
10050;SDS011;5065;46.942;7.432;2022-10-31T13:53:43;8.10;;;3.60;;
10050;SDS011;5065;46.942;7.432;2022-10-31T13:56:24;13.80;;;4.68;;
10050;SDS011;5065;46.942;7.432;2022-10-31T13:59:00;11.90;;;4.10;;
10050;SDS011;5065;46.942;7.432;2022-10-31T14:01:29;10.47;;;4.37;;
10050;SDS011;5065;46.942;7.432;2022-10-31T14:04:00;11.73;;;4.43;;
10050;SDS011;5065;46.942;7.432;2022-10-31T14:06:41;13.07;;;4.57;;
10050;SDS011;5065;46.942;7.432;2022-10-31T14:09:17;5.47;;;3.20;;
10050;SDS011;5065;46.942;7.432;2022-10-31T14:11:48;16.35;;;4.75;;
10050;SDS011;5065;46.942;7.432;2022-10-31T14:14:16;9.63;;;3.97;;
10050;SDS011;5065;46.942;7.432;2022-10-31T14:16:45;11.63;;;3.47;;
10050;SDS011;5065;46.942;7.432;2022-10-31T14:19:19;10.60;;;4.47;;
10050;SDS011;5065;46.942;7.432;2022-10-31T14:21:47;14.67;;;3.83;;
10050;SDS011;5065;46.942;7.432;2022-10-31T14:24:16;11.80;;;4.23;;
10050;SDS011;5065;46.942;7.432;2022-10-31T14:27:00;13.00;;;3.97;;
10050;SDS011;5065;46.942;7.432;2022-10-31T14:29:29;12.20;;;3.55;;
10050;SDS011;5065;46.942;7.432;2022-10-31T14:32:06;8.00;;;3.47;;
10050;SDS011;5065;46.942;7.432;2022-10-31T14:34:51;8.90;;;3.50;;
10050;SDS011;5065;46.942;7.432;2022-10-31T14:37:24;14.10;;;4.07;;
10050;SDS011;5065;46.942;7.432;2022-10-31T14:40:07;14.35;;;3.40;;
10050;SDS011;5065;46.942;7.432;2022-10-31T14:42:52;14.07;;;4.57;;
10050;SDS011;5065;46.942;7.432;2022-10-31T14:45:44;11.63;;;4.75;;
10050;SDS011;5065;46.942;7.432;2022-10-31T14:48:24;7.63;;;4.10;;
10050;SDS011;5065;46.942;7.432;2022-10-31T14:50:59;16.55;;;4.97;;
10050;SDS011;5065;46.942;7.432;2022-10-31T14:53:28;15.18;;;6.72;;
10050;SDS011;5065;46.942;7.432;2022-10-31T14:55:58;18.38;;;7.88;;
10050;SDS011;5065;46.942;7.432;2022-10-31T14:58:28;19.42;;;8.52;;
10050;SDS011;5065;46.942;7.432;2022-10-31T15:01:00;14.55;;;6.65;;
10050;SDS011;5065;46.942;7.432;2022-10-31T15:03:30;16.77;;;7.18;;
10050;SDS011;5065;46.942;7.432;2022-10-31T15:06:00;13.25;;;6.75;;
10050;SDS011;5065;46.942;7.432;2022-10-31T15:08:34;18.85;;;7.68;;
10050;SDS011;5065;46.942;7.432;2022-10-31T15:11:09;16.85;;;8.40;;
10050;SDS011;5065;46.942;7.432;2022-10-31T15:13:42;13.68;;;9.10;;
10050;SDS011;5065;46.942;7.432;2022-10-31T15:16:11;19.70;;;10.63;;
10050;SDS011;5065;46.942;7.432;2022-10-31T15:18:44;16.75;;;9.70;;
10050;SDS011;5065;46.942;7.432;2022-10-31T15:21:14;18.65;;;11.13;;
10050;SDS011;5065;46.942;7.432;2022-10-31T15:23:42;19.10;;;12.75;;
10050;SDS011;5065;46.942;7.432;2022-10-31T15:26:11;25.52;;;11.55;;
10050;SDS011;5065;46.942;7.432;2022-10-31T15:28:45;17.15;;;11.40;;